Time;durP1;ratioP1;P1;durP2;ratioP2;P2;SDS_P1;SDS_P2;PMS_P1;PMS_P2;Temp;Humidity;BMP_temperature;BMP_pressure;BME280_temperature;BME280_humidity;BME280_pressure;Samples;Min_cycle;Max_cycle;Signal;HPM_P1;HPM_P2
2022/12/21 00:01:20;;;;;;;11.00;9.00;;;11.60;1.00;;;;;;4959048;28;20438;-84
2022/12/21 00:03:50;;;;;;;12.73;9.37;;;11.50;1.00;;;;;;4948936;28;20181;-86
2022/12/21 00:06:15;;;;;;;11.60;9.77;;;11.50;1.00;;;;;;4975362;28;20830;-84
2022/12/21 00:08:43;;;;;;;12.63;9.53;;;11.50;1.00;;;;;;4974920;28;20471;-84
2022/12/21 00:11:10;;;;;;;13.33;9.20;;;11.50;1.00;;;;;;4980801;28;20192;-88
2022/12/21 00:13:36;;;;;;;11.80;9.60;;;11.50;1.00;;;;;;4974834;28;20985;-85
2022/12/21 00:16:05;;;;;;;12.83;9.63;;;11.50;1.00;;;;;;4975058;28;20411;-86
2022/12/21 00:18:34;;;;;;;11.60;9.67;;;11.50;1.00;;;;;;4975121;28;20765;-84
2022/12/21 00:21:05;;;;;;;12.30;9.80;;;11.50;1.00;;;;;;4975633;28;20789;-85
2022/12/21 00:23:31;;;;;;;15.70;10.37;;;11.50;1.00;;;;;;4975495;28;20943;-85
2022/12/21 00:25:59;;;;;;;10.30;8.80;;;11.50;1.00;;;;;;4973683;28;20555;-84
2022/12/21 00:28:24;;;;;;;12.97;9.27;;;11.50;1.00;;;;;;4975402;28;20451;-84
2022/12/21 00:30:50;;;;;;;13.67;10.13;;;11.40;1.00;;;;;;4975569;28;20421;-85
2022/12/21 00:33:15;;;;;;;14.30;10.40;;;11.40;1.00;;;;;;4974965;28;20441;-84
2022/12/21 00:35:49;;;;;;;14.57;10.50;;;11.40;1.00;;;;;;4958129;28;20188;-84
2022/12/21 00:38:15;;;;;;;12.83;11.00;;;11.50;1.00;;;;;;4954238;28;20211;-84
2022/12/21 00:40:41;;;;;;;12.70;9.80;;;11.40;1.00;;;;;;4985944;28;20422;-85
2022/12/21 00:43:06;;;;;;;11.93;9.90;;;11.40;1.00;;;;;;4976989;28;20439;-85
2022/12/21 00:45:32;;;;;;;12.80;9.53;;;11.40;1.00;;;;;;4960831;28;20227;-88
2022/12/21 00:47:57;;;;;;;13.03;10.87;;;11.50;1.00;;;;;;4978251;28;20588;-84
2022/12/21 00:50:23;;;;;;;24.83;10.43;;;11.50;1.00;;;;;;4977982;28;20184;-88
2022/12/21 00:52:49;;;;;;;12.80;10.77;;;11.40;1.00;;;;;;4978076;28;20541;-84
2022/12/21 00:55:14;;;;;;;14.20;11.00;;;11.50;1.00;;;;;;4978191;28;20176;-84
2022/12/21 00:57:40;;;;;;;12.80;10.73;;;11.40;1.00;;;;;;4977675;28;20546;-85
2022/12/21 01:00:06;;;;;;;13.57;11.50;;;11.40;1.00;;;;;;4959019;28;20204;-84
2022/12/21 01:02:31;;;;;;;14.33;11.40;;;11.40;1.00;;;;;;4972996;28;20212;-88
2022/12/21 01:04:57;;;;;;;15.43;11.30;;;11.40;1.00;;;;;;4971272;28;21172;-85
2022/12/21 01:07:22;;;;;;;17.97;11.97;;;11.40;1.00;;;;;;4971443;28;20232;-85
2022/12/21 01:09:48;;;;;;;17.97;11.97;;;11.30;1.00;;;;;;4978966;28;20250;-86
2022/12/21 01:12:13;;;;;;;17.90;13.20;;;11.30;1.00;;;;;;4983734;28;20294;-84
2022/12/21 01:14:39;;;;;;;15.63;11.70;;;11.30;1.00;;;;;;4978120;28;20180;-84
2022/12/21 01:17:04;;;;;;;19.27;13.40;;;11.40;1.00;;;;;;4976702;28;20204;-83
2022/12/21 01:19:30;;;;;;;19.27;14.60;;;11.30;1.00;;;;;;4978648;28;20656;-85
2022/12/21 01:21:55;;;;;;;18.40;13.97;;;11.40;1.00;;;;;;4983872;28;20187;-87
2022/12/21 01:24:21;;;;;;;26.40;14.00;;;11.40;1.00;;;;;;4966834;28;20176;-85
2022/12/21 01:26:46;;;;;;;25.53;14.73;;;11.30;1.00;;;;;;4971114;28;20236;-86
2022/12/21 01:29:13;;;;;;;24.00;15.80;;;11.30;1.00;;;;;;4984815;28;20668;-88
2022/12/21 01:31:39;;;;;;;21.90;15.00;;;11.30;1.00;;;;;;4984450;28;20195;-85
2022/12/21 01:34:04;;;;;;;25.00;15.27;;;11.30;1.00;;;;;;4984192;28;20794;-85
2022/12/21 01:36:30;;;;;;;24.57;15.23;;;11.40;1.00;;;;;;4977195;28;20231;-86
2022/12/21 01:38:55;;;;;;;26.03;15.80;;;11.30;1.00;;;;;;4981034;28;20208;-85
2022/12/21 01:41:25;;;;;;;22.07;15.43;;;11.30;1.00;;;;;;4983885;28;20191;-85
2022/12/21 01:43:52;;;;;;;22.87;14.63;;;11.40;1.00;;;;;;4983937;28;20196;-86
2022/12/21 01:46:29;;;;;;;21.50;15.10;;;11.40;1.00;;;;;;4983809;28;20446;-85
2022/12/21 01:49:09;;;;;;;24.20;14.57;;;11.40;1.00;;;;;;4984195;28;20490;-89
2022/12/21 01:51:36;;;;;;;23.00;13.10;;;11.40;1.00;;;;;;4974379;28;21485;-84
2022/12/21 01:54:11;;;;;;;23.40;15.07;;;11.40;1.00;;;;;;4983910;28;20440;-87
2022/12/21 01:56:39;;;;;;;23.33;14.17;;;11.30;1.00;;;;;;4973356;28;20439;-87
2022/12/21 01:59:15;;;;;;;20.77;13.87;;;11.30;1.00;;;;;;4983609;28;20467;-86
2022/12/21 02:01:40;;;;;;;26.37;14.77;;;11.40;1.00;;;;;;4980006;28;20438;-87
2022/12/21 02:04:07;;;;;;;24.10;14.57;;;11.30;1.00;;;;;;4984605;28;20939;-88
2022/12/21 02:06:41;;;;;;;23.53;13.70;;;11.30;1.00;;;;;;4983983;28;20176;-86
2022/12/21 02:09:07;;;;;;;27.53;15.63;;;11.30;1.00;;;;;;4958712;28;20470;-87
2022/12/21 02:11:33;;;;;;;29.40;16.20;;;11.30;1.00;;;;;;4980355;28;20428;-86
2022/12/21 02:13:58;;;;;;;21.00;14.23;;;11.30;1.00;;;;;;4964596;28;20610;-86
2022/12/21 02:16:45;;;;;;;27.13;14.80;;;11.30;1.00;;;;;;4980220;28;20640;-86
2022/12/21 02:19:48;;;;;;;20.23;14.03;;;11.40;1.00;;;;;;4964887;28;20223;-88
2022/12/21 02:22:38;;;;;;;22.97;14.33;;;11.40;1.00;;;;;;4978707;28;20440;-88
2022/12/21 02:25:35;;;;;;;27.93;13.77;;;11.40;1.00;;;;;;4974965;28;20435;-86
2022/12/21 02:28:38;;;;;;;26.47;13.90;;;11.40;1.00;;;;;;4984820;28;20999;-85
2022/12/21 02:31:32;;;;;;;25.43;13.60;;;11.30;1.00;;;;;;4983490;28;20451;-86
2022/12/21 02:34:13;;;;;;;26.20;14.97;;;11.30;1.00;;;;;;4966083;28;20436;-86
2022/12/21 02:37:16;;;;;;;27.50;15.33;;;11.30;1.00;;;;;;4984885;28;20428;-86
2022/12/21 02:40:17;;;;;;;25.47;15.70;;;11.30;1.00;;;;;;4980308;28;20486;-84
2022/12/21 02:45:42;;;;;;;29.47;15.43;;;11.30;1.00;;;;;;4981865;28;20402;-88
2022/12/21 02:48:19;;;;;;;25.77;14.87;;;11.30;1.00;;;;;;4983281;28;20455;-86
2022/12/21 02:50:53;;;;;;;30.00;14.87;;;11.30;1.00;;;;;;4984488;28;20439;-85
2022/12/21 02:53:30;;;;;;;23.73;14.73;;;11.20;1.00;;;;;;4984123;28;20463;-88
2022/12/21 02:55:55;;;;;;;23.00;14.30;;;11.30;1.00;;;;;;4987830;28;20486;-89
2022/12/21 02:58:23;;;;;;;24.10;13.17;;;11.30;1.00;;;;;;4981863;28;20506;-85
2022/12/21 03:00:51;;;;;;;24.13;13.87;;;11.30;1.00;;;;;;4964346;28;20238;-89
2022/12/21 03:03:48;;;;;;;26.43;14.07;;;11.30;1.00;;;;;;4981905;28;20511;-86
2022/12/21 03:06:23;;;;;;;24.90;12.53;;;11.30;1.00;;;;;;4975473;28;20435;-89
2022/12/21 03:09:20;;;;;;;20.00;12.90;;;11.30;1.00;;;;;;4994236;28;20454;-89
2022/12/21 03:12:13;;;;;;;21.33;13.70;;;11.30;1.00;;;;;;5002240;28;20404;-84
2022/12/21 03:15:18;;;;;;;22.50;12.03;;;11.30;1.00;;;;;;4975692;28;20454;-86
2022/12/21 03:18:09;;;;;;;22.40;13.80;;;11.30;1.00;;;;;;4890359;29;20470;-85
2022/12/21 03:20:50;;;;;;;22.50;12.43;;;11.30;1.00;;;;;;4963850;28;20494;-85
2022/12/21 03:23:24;;;;;;;19.97;12.10;;;11.30;1.00;;;;;;4958126;28;20435;-85
2022/12/21 03:26:15;;;;;;;23.43;14.00;;;11.30;1.00;;;;;;4976185;28;20466;-85
2022/12/21 03:28:42;;;;;;;21.37;12.90;;;11.30;1.00;;;;;;4956074;28;20956;-84
2022/12/21 03:31:13;;;;;;;23.27;14.00;;;11.30;1.00;;;;;;4964192;28;20851;-85
2022/12/21 03:33:45;;;;;;;24.70;13.40;;;11.30;1.00;;;;;;4972789;28;20442;-84
2022/12/21 03:36:23;;;;;;;24.10;13.50;;;11.30;1.00;;;;;;4974606;28;20436;-84
2022/12/21 03:39:03;;;;;;;25.00;13.67;;;11.30;1.00;;;;;;4974317;28;20467;-84
2022/12/21 03:41:38;;;;;;;29.83;14.80;;;11.30;1.00;;;;;;4961242;28;20439;-85
2022/12/21 03:44:08;;;;;;;26.40;14.13;;;11.30;1.00;;;;;;4967017;28;20963;-84
2022/12/21 03:46:40;;;;;;;26.27;15.83;;;11.30;1.00;;;;;;4970167;28;20439;-87
2022/12/21 03:49:14;;;;;;;28.20;14.57;;;11.40;1.00;;;;;;4975617;28;20832;-85
2022/12/21 03:52:01;;;;;;;27.33;14.63;;;11.30;1.00;;;;;;4973108;28;20439;-84
2022/12/21 03:54:42;;;;;;;23.30;13.93;;;11.30;1.00;;;;;;4973571;28;20435;-84
2022/12/21 03:57:09;;;;;;;23.57;12.93;;;11.40;1.00;;;;;;4966564;28;20447;-84
2022/12/21 03:59:40;;;;;;;30.27;13.90;;;11.40;1.00;;;;;;4974256;28;20478;-84
2022/12/21 04:02:28;;;;;;;28.50;12.87;;;11.40;1.00;;;;;;4974668;28;20439;-84
2022/12/21 04:05:14;;;;;;;33.90;11.33;;;11.30;1.00;;;;;;4975219;28;20412;-84
2022/12/21 04:07:42;;;;;;;22.67;11.40;;;11.30;1.00;;;;;;4974706;28;20459;-86
2022/12/21 04:10:14;;;;;;;24.43;12.40;;;11.30;1.00;;;;;;4973093;28;20447;-84
2022/12/21 04:12:40;;;;;;;15.90;10.70;;;11.20;1.00;;;;;;4965959;28;20445;-84
2022/12/21 04:15:21;;;;;;;15.93;11.63;;;11.20;1.00;;;;;;4971558;28;20435;-85
2022/12/21 04:17:51;;;;;;;22.67;12.97;;;11.20;1.00;;;;;;4978297;28;20287;-84
2022/12/21 04:20:24;;;;;;;21.03;12.13;;;11.20;1.00;;;;;;4970161;28;20452;-85
2022/12/21 04:28:26;;;;;;;20.30;13.00;;;11.20;1.00;;;;;;4976489;28;20870;-85
2022/12/21 04:30:52;;;;;;;22.77;14.10;;;11.10;1.00;;;;;;4981284;28;20439;-86
2022/12/21 04:33:20;;;;;;;24.70;15.37;;;11.20;1.00;;;;;;4976945;28;20428;-85
2022/12/21 04:38:33;;;;;;;19.87;12.83;;;11.20;1.00;;;;;;4978966;28;20470;-84
2022/12/21 04:40:58;;;;;;;20.27;12.13;;;11.20;1.00;;;;;;4970431;28;20446;-84
2022/12/21 04:43:25;;;;;;;16.80;10.47;;;11.20;1.00;;;;;;4958097;28;20951;-84
2022/12/21 04:46:09;;;;;;;18.23;10.73;;;11.20;1.00;;;;;;4961702;28;20191;-86
2022/12/21 04:48:35;;;;;;;21.10;10.70;;;11.20;1.00;;;;;;4971201;28;20535;-87
2022/12/21 04:51:19;;;;;;;33.87;10.00;;;11.20;1.00;;;;;;4978731;28;21002;-84
2022/12/21 04:53:45;;;;;;;25.63;8.93;;;11.20;1.00;;;;;;4977191;28;20946;-86
2022/12/21 04:56:11;;;;;;;21.07;9.30;;;11.20;1.00;;;;;;4977348;28;20455;-85
2022/12/21 04:58:38;;;;;;;25.27;9.50;;;11.10;1.00;;;;;;4984372;28;20574;-87
2022/12/21 05:01:08;;;;;;;20.67;9.37;;;11.20;1.00;;;;;;4981391;28;20899;-86
2022/12/21 05:03:34;;;;;;;19.07;9.73;;;11.20;1.00;;;;;;4965741;28;20460;-85
2022/12/21 05:05:59;;;;;;;19.47;8.37;;;11.10;1.00;;;;;;4975410;28;20432;-85
2022/12/21 05:08:25;;;;;;;12.30;7.73;;;11.20;1.00;;;;;;4976339;28;20232;-86
2022/12/21 05:10:50;;;;;;;13.67;8.90;;;11.20;1.00;;;;;;4993680;28;20191;-86
2022/12/21 05:13:16;;;;;;;9.33;7.30;;;11.20;1.00;;;;;;4983847;28;20199;-86
2022/12/21 05:15:42;;;;;;;11.60;8.50;;;11.20;1.00;;;;;;4983591;28;20624;-85
2022/12/21 05:18:07;;;;;;;16.10;9.17;;;11.20;1.00;;;;;;4979321;28;20211;-86
2022/12/21 05:20:33;;;;;;;19.77;8.43;;;11.10;1.00;;;;;;4984898;28;20184;-86
2022/12/21 05:22:58;;;;;;;24.10;10.03;;;11.20;1.00;;;;;;4979298;28;20196;-84
2022/12/21 05:25:24;;;;;;;15.67;8.40;;;11.10;1.00;;;;;;4984210;28;20180;-85
2022/12/21 05:27:49;;;;;;;23.80;8.87;;;11.10;1.00;;;;;;4969657;28;20200;-88
2022/12/21 05:30:15;;;;;;;11.83;8.17;;;11.10;1.00;;;;;;4970468;28;20276;-85
2022/12/21 05:32:40;;;;;;;17.83;9.03;;;11.20;1.00;;;;;;4966351;28;20182;-87
2022/12/21 05:35:06;;;;;;;19.67;9.83;;;11.20;1.00;;;;;;4982331;28;20187;-86
2022/12/21 05:37:32;;;;;;;38.20;11.57;;;11.20;1.00;;;;;;4983798;28;20207;-90
2022/12/21 05:39:57;;;;;;;59.83;12.30;;;11.20;1.00;;;;;;4961961;28;20463;-85
2022/12/21 05:42:23;;;;;;;17.57;10.30;;;11.20;1.00;;;;;;4986315;28;20181;-89
2022/12/21 05:44:48;;;;;;;16.20;10.83;;;11.20;1.00;;;;;;4984088;28;20183;-87
2022/12/21 05:47:14;;;;;;;30.40;11.23;;;11.20;1.00;;;;;;4984427;28;20592;-85
2022/12/21 05:49:39;;;;;;;18.93;9.57;;;11.20;1.00;;;;;;4973945;28;20193;-89
2022/12/21 05:52:05;;;;;;;27.87;8.87;;;11.20;1.00;;;;;;4983643;28;20223;-88
2022/12/21 05:54:30;;;;;;;35.77;9.20;;;11.20;1.00;;;;;;4983753;28;20242;-87
2022/12/21 05:56:56;;;;;;;21.27;8.53;;;11.20;1.00;;;;;;4982254;28;20215;-86
2022/12/21 05:59:21;;;;;;;9.97;7.50;;;11.30;1.00;;;;;;4984608;28;20223;-86
2022/12/21 06:01:47;;;;;;;11.33;7.23;;;11.20;1.00;;;;;;4982060;28;20268;-86
2022/12/21 06:04:12;;;;;;;9.30;7.13;;;11.20;1.00;;;;;;4983728;28;20188;-86
2022/12/21 06:06:38;;;;;;;13.47;6.90;;;11.30;1.00;;;;;;4962124;28;20208;-85
2022/12/21 06:09:04;;;;;;;10.40;6.83;;;11.30;1.00;;;;;;4977143;28;20184;-85
2022/12/21 06:11:30;;;;;;;10.33;6.57;;;11.30;1.00;;;;;;4973890;28;20195;-89
2022/12/21 06:13:55;;;;;;;8.40;6.10;;;11.30;1.00;;;;;;4982264;28;20670;-86
2022/12/21 06:16:23;;;;;;;8.60;6.30;;;11.20;1.00;;;;;;4979476;28;20526;-87
2022/12/21 06:18:49;;;;;;;8.03;6.17;;;11.30;1.00;;;;;;4983163;28;20282;-87
2022/12/21 06:21:16;;;;;;;7.77;5.67;;;11.30;1.00;;;;;;4980273;28;20543;-89
2022/12/21 06:23:43;;;;;;;8.40;6.00;;;11.20;1.00;;;;;;4985241;28;20436;-86
2022/12/21 06:26:12;;;;;;;11.27;5.10;;;11.20;1.00;;;;;;4980118;28;20463;-87
2022/12/21 06:28:38;;;;;;;12.47;5.63;;;11.20;1.00;;;;;;4968989;28;21700;-86
2022/12/21 06:31:10;;;;;;;6.90;5.90;;;11.10;1.00;;;;;;4981867;28;20467;-89
2022/12/21 06:33:36;;;;;;;7.70;5.30;;;11.10;1.00;;;;;;4980926;28;20203;-86
2022/12/21 06:36:11;;;;;;;7.77;5.53;;;11.10;1.00;;;;;;4967344;28;21033;-86
2022/12/21 06:38:37;;;;;;;7.90;6.20;;;11.10;1.00;;;;;;4972812;28;20462;-85
2022/12/21 06:41:06;;;;;;;7.67;5.30;;;11.10;1.00;;;;;;4982088;28;20483;-87
2022/12/21 06:43:33;;;;;;;9.53;5.27;;;11.10;1.00;;;;;;4969900;28;20203;-89
2022/12/21 06:46:04;;;;;;;6.83;5.33;;;11.20;1.00;;;;;;4992218;28;20439;-90
2022/12/21 06:48:32;;;;;;;6.17;5.13;;;11.20;1.00;;;;;;4980588;28;20449;-88
2022/12/21 06:51:06;;;;;;;6.03;5.17;;;11.20;1.00;;;;;;4976849;28;20420;-84
2022/12/21 06:53:34;;;;;;;5.43;4.53;;;11.20;1.00;;;;;;4975639;28;20438;-85
2022/12/21 06:56:05;;;;;;;5.00;3.83;;;11.20;1.00;;;;;;4963813;28;20459;-85
2022/12/21 06:58:31;;;;;;;7.50;5.77;;;11.20;1.00;;;;;;4973748;28;20967;-87
2022/12/21 07:01:05;;;;;;;8.20;6.10;;;11.20;1.00;;;;;;4969859;28;20439;-86
2022/12/21 07:03:30;;;;;;;13.57;8.07;;;11.20;1.00;;;;;;4967375;28;20436;-86
2022/12/21 07:05:56;;;;;;;12.60;8.03;;;11.20;1.00;;;;;;4961725;28;20439;-86
2022/12/21 07:08:21;;;;;;;9.97;7.93;;;11.20;1.00;;;;;;4962679;28;20204;-86
2022/12/21 07:10:47;;;;;;;11.80;7.97;;;11.20;1.00;;;;;;4962103;28;20592;-85
2022/12/21 07:13:13;;;;;;;11.97;8.07;;;11.20;1.00;;;;;;4972442;28;20568;-85
2022/12/21 07:15:38;;;;;;;13.10;8.30;;;11.20;1.00;;;;;;4969062;28;20441;-87
2022/12/21 07:18:04;;;;;;;15.73;9.63;;;11.20;1.00;;;;;;4971733;28;20223;-85
2022/12/21 07:20:30;;;;;;;20.00;12.23;;;11.20;1.00;;;;;;4972700;28;20191;-86
2022/12/21 07:22:55;;;;;;;20.90;12.43;;;11.20;1.00;;;;;;4959630;28;20215;-85
2022/12/21 07:25:21;;;;;;;26.27;15.43;;;11.10;1.00;;;;;;4973481;28;20180;-84
2022/12/21 07:27:46;;;;;;;25.00;14.50;;;11.10;1.00;;;;;;4970670;28;20235;-85
2022/12/21 07:30:13;;;;;;;27.37;14.93;;;11.10;1.00;;;;;;4970792;28;20645;-87
2022/12/21 07:32:39;;;;;;;27.00;15.00;;;11.10;1.00;;;;;;4971396;28;20684;-86
2022/12/21 07:35:05;;;;;;;29.80;15.20;;;11.20;1.00;;;;;;4970140;28;20449;-86
2022/12/21 07:37:30;;;;;;;34.43;20.60;;;11.20;1.00;;;;;;4970059;28;20212;-86
2022/12/21 07:39:56;;;;;;;29.53;17.60;;;11.20;1.00;;;;;;4973360;28;20463;-88
2022/12/21 07:42:21;;;;;;;32.60;19.30;;;11.30;1.00;;;;;;4973272;28;20188;-87
2022/12/21 07:44:47;;;;;;;34.10;20.70;;;11.40;1.00;;;;;;4970185;28;20219;-84
2022/12/21 07:47:12;;;;;;;38.93;21.17;;;11.40;1.00;;;;;;4975676;28;20287;-87
2022/12/21 07:49:38;;;;;;;33.30;16.67;;;11.30;1.00;;;;;;4959913;28;20217;-87
2022/12/21 07:52:04;;;;;;;30.93;15.70;;;11.30;1.00;;;;;;4967303;28;20219;-87
2022/12/21 07:54:29;;;;;;;26.70;16.80;;;11.40;1.00;;;;;;4971654;28;20192;-88
2022/12/21 07:56:55;;;;;;;31.53;15.90;;;11.30;1.00;;;;;;4972193;28;20843;-87
2022/12/21 07:59:20;;;;;;;28.23;16.23;;;11.30;1.00;;;;;;4973471;28;20636;-87
2022/12/21 08:01:46;;;;;;;29.00;17.00;;;11.30;1.00;;;;;;4973209;28;20552;-87
2022/12/21 08:04:17;;;;;;;33.37;14.20;;;11.30;1.00;;;;;;4950937;28;21045;-87
2022/12/21 08:06:43;;;;;;;22.00;14.10;;;11.20;1.00;;;;;;4971491;28;20259;-87
2022/12/21 08:09:10;;;;;;;23.23;13.77;;;11.10;1.00;;;;;;4954815;28;20955;-87
2022/12/21 08:11:35;;;;;;;26.30;15.20;;;11.20;1.00;;;;;;4969792;28;20192;-88
2022/12/21 08:14:01;;;;;;;21.57;13.00;;;11.20;1.00;;;;;;4972954;28;20462;-88
2022/12/21 08:16:26;;;;;;;26.30;12.90;;;11.20;1.00;;;;;;4960711;28;20192;-87
2022/12/21 08:18:54;;;;;;;18.20;11.17;;;11.20;1.00;;;;;;4957291;28;20223;-87
2022/12/21 08:21:20;;;;;;;19.60;12.00;;;11.10;1.00;;;;;;4970076;28;20549;-87
2022/12/21 08:23:47;;;;;;;24.30;11.63;;;11.10;1.00;;;;;;4973035;28;20518;-86
2022/12/21 08:26:13;;;;;;;19.97;11.83;;;11.10;1.00;;;;;;4969574;28;20196;-87
2022/12/21 08:28:39;;;;;;;18.10;10.23;;;11.20;1.00;;;;;;4948063;28;20459;-87
2022/12/21 08:31:06;;;;;;;22.90;10.63;;;11.20;1.00;;;;;;4961697;28;20462;-87
2022/12/21 08:33:32;;;;;;;22.10;11.53;;;11.20;1.00;;;;;;4971688;28;20443;-87
2022/12/21 08:35:58;;;;;;;18.10;11.37;;;11.30;1.00;;;;;;4978311;28;20438;-87
2022/12/21 08:38:24;;;;;;;27.30;13.53;;;11.30;1.00;;;;;;4960545;28;20212;-87
2022/12/21 08:40:51;;;;;;;28.20;12.87;;;11.20;1.00;;;;;;4981154;28;20242;-87
2022/12/21 08:43:17;;;;;;;18.47;12.60;;;11.20;1.00;;;;;;4974965;28;20502;-87
2022/12/21 08:45:43;;;;;;;25.73;13.10;;;11.10;1.00;;;;;;4972562;28;21030;-87
2022/12/21 08:48:09;;;;;;;23.87;13.30;;;11.10;1.00;;;;;;4974786;28;20427;-87
2022/12/21 08:50:35;;;;;;;21.40;12.23;;;11.10;1.00;;;;;;4974681;28;20445;-89
2022/12/21 08:53:01;;;;;;;18.27;11.83;;;11.10;1.00;;;;;;4957973;28;20176;-86
2022/12/21 08:55:26;;;;;;;19.60;12.83;;;11.10;1.00;;;;;;4974457;28;20184;-87
2022/12/21 08:57:52;;;;;;;24.50;12.47;;;11.20;1.00;;;;;;4971032;28;20291;-87
2022/12/21 09:00:18;;;;;;;18.87;11.30;;;11.10;1.00;;;;;;4975021;28;20283;-88
2022/12/21 09:02:43;;;;;;;19.80;12.60;;;11.20;1.00;;;;;;4950665;28;20180;-87
2022/12/21 09:05:10;;;;;;;19.00;12.67;;;11.30;1.00;;;;;;4967685;28;20435;-87
2022/12/21 09:07:35;;;;;;;13.93;9.90;;;11.30;1.00;;;;;;4974779;28;20220;-86
2022/12/21 09:10:04;;;;;;;16.80;11.27;;;11.40;1.00;;;;;;4974963;28;20450;-87
2022/12/21 09:12:29;;;;;;;19.00;10.77;;;11.50;1.00;;;;;;4974107;28;20188;-87
2022/12/21 09:14:55;;;;;;;17.90;11.07;;;11.50;1.00;;;;;;4951773;28;20447;-87
2022/12/21 09:17:20;;;;;;;15.50;9.20;;;11.50;1.00;;;;;;4973638;28;20207;-87
2022/12/21 09:19:46;;;;;;;16.30;9.23;;;11.50;1.00;;;;;;4971803;28;20569;-87
2022/12/21 09:22:12;;;;;;;14.90;9.70;;;11.60;1.00;;;;;;4974697;28;20189;-86
2022/12/21 09:24:37;;;;;;;16.73;10.50;;;11.80;1.00;;;;;;4975299;28;20539;-87
2022/12/21 09:27:03;;;;;;;15.30;11.00;;;12.30;99.90;;;;;;4956520;28;20515;-86
2022/12/21 09:29:28;;;;;;;16.80;11.37;;;12.50;99.90;;;;;;4968303;28;20181;-87
2022/12/21 09:31:55;;;;;;;18.60;11.30;;;12.30;99.90;;;;;;4970510;28;20595;-86
2022/12/21 09:34:20;;;;;;;17.03;11.80;;;12.10;99.90;;;;;;4973631;28;20185;-86
2022/12/21 09:36:46;;;;;;;19.40;12.97;;;12.20;99.90;;;;;;4973633;28;20415;-87
2022/12/21 09:39:11;;;;;;;22.97;13.90;;;12.10;99.90;;;;;;4973888;28;20283;-86
2022/12/21 09:41:48;;;;;;;19.23;13.30;;;12.10;99.90;;;;;;4977232;28;20229;-86
2022/12/21 09:44:41;;;;;;;20.23;12.20;;;12.00;99.90;;;;;;4968514;28;20188;-87
2022/12/21 09:47:14;;;;;;;18.30;10.70;;;11.80;99.90;;;;;;4949355;28;20438;-86
2022/12/21 09:49:47;;;;;;;18.07;11.00;;;11.80;99.90;;;;;;4969446;28;20429;-86
2022/12/21 09:52:21;;;;;;;15.70;10.53;;;12.00;99.90;;;;;;4968318;28;20462;-87
2022/12/21 09:54:56;;;;;;;16.13;9.57;;;12.40;99.90;;;;;;4974278;28;20435;-86
2022/12/21 09:57:25;;;;;;;22.87;10.67;;;12.80;1.00;;;;;;4970167;28;20506;-87
2022/12/21 09:59:51;;;;;;;16.17;10.07;;;12.80;99.90;;;;;;4969714;28;20844;-87
2022/12/21 10:02:38;;;;;;;20.03;10.47;;;12.70;1.00;;;;;;4966321;28;20526;-87
2022/12/21 10:05:31;;;;;;;19.00;8.83;;;12.50;99.90;;;;;;4970139;28;20595;-89
2022/12/21 10:08:25;;;;;;;19.53;9.40;;;12.40;99.90;;;;;;4971450;28;20959;-86
2022/12/21 10:11:16;;;;;;;17.90;9.40;;;12.30;99.90;;;;;;4973883;28;20440;-87
2022/12/21 10:13:50;;;;;;;18.37;8.83;;;12.20;99.90;;;;;;4956482;28;20448;-86
2022/12/21 10:16:28;;;;;;;16.47;9.23;;;12.10;99.90;;;;;;4973250;28;20424;-87
2022/12/21 10:19:12;;;;;;;15.73;8.30;;;11.90;99.90;;;;;;4971786;28;20492;-86
2022/12/21 10:21:47;;;;;;;15.80;8.50;;;11.80;99.90;;;;;;4970484;28;20427;-86
2022/12/21 10:24:30;;;;;;;12.40;9.03;;;11.50;99.90;;;;;;4985290;28;20420;-88
2022/12/21 10:27:05;;;;;;;16.30;8.63;;;11.40;1.00;;;;;;4997589;28;20460;-87
2022/12/21 10:29:35;;;;;;;17.73;8.67;;;11.30;1.00;;;;;;4986561;28;20431;-86
2022/12/21 10:32:01;;;;;;;19.10;9.30;;;11.20;1.00;;;;;;4955808;28;20443;-86
2022/12/21 10:34:35;;;;;;;20.10;7.87;;;11.20;1.00;;;;;;4973582;28;20415;-86
2022/12/21 10:37:09;;;;;;;16.90;8.00;;;11.20;22.30;;;;;;4975794;28;20466;-87
2022/12/21 10:39:35;;;;;;;15.73;8.20;;;11.20;23.70;;;;;;4974341;28;20459;-87
2022/12/21 10:42:20;;;;;;;17.90;8.50;;;11.30;7.50;;;;;;4975157;28;20811;-87
2022/12/21 10:44:47;;;;;;;17.97;6.50;;;11.30;2.90;;;;;;4955798;28;20226;-86
2022/12/21 10:47:21;;;;;;;13.90;7.57;;;11.40;1.00;;;;;;4957239;28;20480;-86
2022/12/21 10:50:13;;;;;;;14.07;6.90;;;11.50;1.00;;;;;;4973597;28;20480;-87
2022/12/21 10:52:40;;;;;;;17.37;7.90;;;11.70;1.00;;;;;;4954453;28;20428;-86
2022/12/21 10:55:24;;;;;;;16.67;7.00;;;12.00;1.00;;;;;;4970237;28;20447;-87
2022/12/21 10:58:02;;;;;;;15.07;6.90;;;12.50;99.90;;;;;;4968796;28;20522;-88
2022/12/21 11:00:29;;;;;;;13.73;5.80;;;12.90;99.90;;;;;;4965977;28;20451;-87
2022/12/21 11:03:06;;;;;;;14.30;5.87;;;13.30;1.00;;;;;;4972382;28;20464;-87
2022/12/21 11:05:40;;;;;;;17.27;6.97;;;13.50;1.00;;;;;;4971906;28;20764;-87
2022/12/21 11:08:27;;;;;;;10.90;5.10;;;13.40;99.90;;;;;;4939966;28;20442;-88
2022/12/21 11:11:00;;;;;;;13.30;5.20;;;13.20;31.20;;;;;;4979171;28;20548;-87
2022/12/21 11:13:33;;;;;;;11.60;4.60;;;13.10;97.20;;;;;;4972999;28;20412;-86
2022/12/21 11:16:05;;;;;;;17.60;4.50;;;13.10;92.10;;;;;;4972351;28;20420;-87
2022/12/21 11:18:40;;;;;;;12.10;5.87;;;13.10;99.90;;;;;;4952491;28;20546;-86
2022/12/21 11:21:44;;;;;;;11.67;4.67;;;13.10;99.90;;;;;;4963620;28;20430;-87
2022/12/21 11:24:29;;;;;;;11.83;4.40;;;13.10;46.50;;;;;;4957621;28;21016;-87
2022/12/21 11:27:10;;;;;;;16.53;5.13;;;13.10;9.00;;;;;;4972491;28;20600;-87
2022/12/21 11:29:55;;;;;;;7.90;3.57;;;13.00;1.00;;;;;;4971195;28;20436;-86
2022/12/21 11:32:22;;;;;;;7.83;3.37;;;13.00;1.00;;;;;;4967194;28;20415;-86
2022/12/21 11:34:53;;;;;;;8.43;3.63;;;13.20;1.00;;;;;;4969356;28;20469;-87
2022/12/21 11:37:36;;;;;;;7.00;3.03;;;13.20;99.90;;;;;;4972409;28;20445;-87
2022/12/21 11:40:24;;;;;;;7.67;3.30;;;13.30;94.20;;;;;;4969790;28;21088;-87
2022/12/21 11:42:58;;;;;;;7.00;2.60;;;13.40;1.00;;;;;;4971274;28;20528;-85
2022/12/21 11:45:25;;;;;;;6.10;2.73;;;13.50;1.00;;;;;;4970671;28;20578;-81
2022/12/21 11:48:01;;;;;;;6.53;3.20;;;13.60;1.00;;;;;;4970945;28;20455;-83
2022/12/21 11:50:45;;;;;;;13.03;3.43;;;13.60;1.00;;;;;;4976515;28;20430;-82
2022/12/21 11:53:15;;;;;;;5.73;2.30;;;13.80;1.00;;;;;;4972562;28;20439;-84
2022/12/21 11:56:29;;;;;;;11.93;3.27;;;13.90;99.90;;;;;;4950152;28;20506;-84
2022/12/21 11:59:26;;;;;;;7.87;2.80;;;14.00;99.90;;;;;;4951286;28;20622;-82
2022/12/21 12:02:27;;;;;;;9.67;3.10;;;14.20;99.90;;;;;;4974988;28;20418;-82
2022/12/21 12:05:28;;;;;;;4.70;2.40;;;14.40;99.90;;;;;;4972285;28;20521;-82
2022/12/21 12:08:06;;;;;;;6.00;2.70;;;14.40;99.90;;;;;;4966774;28;20466;-82
2022/12/21 12:10:59;;;;;;;10.10;4.07;;;14.40;96.70;;;;;;4976298;28;20969;-82
2022/12/21 12:13:31;;;;;;;6.40;3.43;;;14.40;49.10;;;;;;4968528;28;20983;-82
2022/12/21 12:16:12;;;;;;;6.30;3.07;;;14.40;33.50;;;;;;4972674;28;20435;-82
2022/12/21 12:18:47;;;;;;;8.43;3.00;;;14.40;28.90;;;;;;4972453;28;20477;-84
2022/12/21 12:21:47;;;;;;;6.63;3.53;;;14.40;1.00;;;;;;4975975;28;20449;-82
2022/12/21 12:24:40;;;;;;;7.57;3.50;;;14.30;1.20;;;;;;4970113;28;20879;-82
2022/12/21 12:27:35;;;;;;;6.57;3.50;;;14.20;1.00;;;;;;4973729;28;20489;-85
2022/12/21 12:30:09;;;;;;;5.37;3.57;;;14.20;1.00;;;;;;4966614;28;20484;-83
2022/12/21 12:33:02;;;;;;;8.23;3.20;;;14.20;40.40;;;;;;4976823;28;20450;-82
2022/12/21 12:35:42;;;;;;;7.33;4.43;;;14.30;34.60;;;;;;4966742;28;21001;-85
2022/12/21 12:38:23;;;;;;;6.50;3.40;;;14.20;61.90;;;;;;4973962;28;20872;-83
2022/12/21 12:41:23;;;;;;;8.67;3.73;;;14.20;17.20;;;;;;4989097;28;20440;-84
2022/12/21 12:44:04;;;;;;;8.40;4.67;;;14.10;22.40;;;;;;4977546;28;20442;-84
2022/12/21 12:46:42;;;;;;;5.57;3.20;;;14.10;54.90;;;;;;4980002;28;20509;-82
2022/12/21 12:49:16;;;;;;;7.80;3.60;;;14.10;64.70;;;;;;4974042;28;20438;-84
2022/12/21 12:51:56;;;;;;;6.13;3.17;;;14.10;67.20;;;;;;4973156;28;20411;-83
2022/12/21 12:54:32;;;;;;;8.80;4.47;;;14.00;34.90;;;;;;4979034;28;20432;-83
2022/12/21 12:57:05;;;;;;;5.70;3.37;;;14.00;53.90;;;;;;4981055;28;20429;-85
2022/12/21 12:59:51;;;;;;;7.10;3.57;;;14.00;76.30;;;;;;4955531;28;20457;-82
2022/12/21 13:02:36;;;;;;;6.47;3.43;;;14.00;83.40;;;;;;4979013;28;20460;-83
2022/12/21 13:05:26;;;;;;;6.60;3.23;;;13.90;99.00;;;;;;4976977;28;21040;-83
2022/12/21 13:08:18;;;;;;;5.77;2.80;;;13.80;99.90;;;;;;4972375;28;20886;-82
2022/12/21 13:10:59;;;;;;;6.20;2.67;;;13.80;99.90;;;;;;4979398;28;20427;-83
2022/12/21 13:13:49;;;;;;;5.30;2.87;;;13.70;99.90;;;;;;4977091;28;20425;-85
2022/12/21 13:16:31;;;;;;;4.10;2.47;;;13.70;99.90;;;;;;4979893;28;20828;-84
2022/12/21 13:19:00;;;;;;;6.70;3.10;;;13.70;99.90;;;;;;4970996;28;20471;-82